createdAt,value
2018-01-19T00:01:22.976Z,3.03
2018-01-19T00:03:56.472Z,3.50
2018-01-19T00:06:25.592Z,3.63
2018-01-19T00:08:53.959Z,3.63
2018-01-19T00:11:23.049Z,3.97
2018-01-19T00:13:52.193Z,5.13
2018-01-19T00:16:20.636Z,3.40
2018-01-19T00:18:49.009Z,3.70
2018-01-19T00:21:18.115Z,3.60
2018-01-19T00:23:46.550Z,3.60
2018-01-19T00:26:14.927Z,3.37
2018-01-19T00:28:43.297Z,2.57
2018-01-19T00:31:11.654Z,2.97
2018-01-19T00:33:40.026Z,3.47
2018-01-19T00:36:08.364Z,2.50
2018-01-19T00:38:36.754Z,2.30
2018-01-19T00:41:05.856Z,2.43
2018-01-19T00:46:34.675Z,1.90
2018-01-19T00:49:03.794Z,2.77
2018-01-19T00:51:32.127Z,2.43
2018-01-19T00:54:00.460Z,2.47
2018-01-19T00:56:28.784Z,3.57
2018-01-19T00:58:58.953Z,5.33
2018-01-19T01:01:27.271Z,3.57
2018-01-19T01:04:00.302Z,2.90
2018-01-19T01:06:29.386Z,2.93
2018-01-19T01:08:58.491Z,2.90
2018-01-19T01:11:26.825Z,2.30
2018-01-19T01:13:55.143Z,2.70
2018-01-19T01:16:24.230Z,2.30
2018-01-19T01:18:53.318Z,2.00
2018-01-19T01:21:21.632Z,1.90
2018-01-19T01:23:50.127Z,1.80
2018-01-19T01:26:19.168Z,2.00
2018-01-19T01:28:47.495Z,2.10
2018-01-19T01:31:15.990Z,2.27
2018-01-19T01:33:44.322Z,1.97
2018-01-19T01:36:12.672Z,2.83
2018-01-19T01:38:40.985Z,1.80
2018-01-19T01:41:21.119Z,1.87
2018-01-19T01:43:49.448Z,1.83
2018-01-19T01:46:17.796Z,1.80
2018-01-19T01:51:46.724Z,2.27
2018-01-19T01:54:15.066Z,2.67
2018-01-19T01:56:43.379Z,2.10
2018-01-19T01:59:11.731Z,1.47
2018-01-19T02:01:40.815Z,1.70
2018-01-19T02:04:09.124Z,1.93
2018-01-19T02:06:37.566Z,1.60
2018-01-19T02:09:05.902Z,1.83
2018-01-19T02:11:34.232Z,2.30
2018-01-19T02:14:03.337Z,1.50
2018-01-19T02:16:32.465Z,1.43
2018-01-19T02:19:01.584Z,1.57
2018-01-19T02:21:29.976Z,1.83
2018-01-19T02:23:58.304Z,1.80
2018-01-19T02:26:27.405Z,1.60
2018-01-19T02:28:56.507Z,1.33
2018-01-19T02:31:24.887Z,1.40
2018-01-19T02:33:53.979Z,1.83
2018-01-19T02:36:22.311Z,1.57
2018-01-19T02:38:50.660Z,1.60
2018-01-19T02:41:19.005Z,1.70
2018-01-19T02:43:47.369Z,1.30
2018-01-19T02:46:15.719Z,1.10
2018-01-19T02:48:44.064Z,1.20
2018-01-19T02:51:12.485Z,1.30
2018-01-19T02:53:40.920Z,1.33
2018-01-19T02:56:10.059Z,1.70
2018-01-19T02:58:38.409Z,1.33
2018-01-19T03:01:06.757Z,1.90
2018-01-19T03:03:35.861Z,0.97
2018-01-19T03:06:04.277Z,1.27
2018-01-19T03:08:32.637Z,1.47
2018-01-19T03:11:01.781Z,0.90
2018-01-19T03:13:30.107Z,1.07
2018-01-19T03:15:59.216Z,1.30
2018-01-19T03:18:27.596Z,1.33
2018-01-19T03:20:56.721Z,1.20
2018-01-19T03:23:25.113Z,1.20
2018-01-19T03:25:53.498Z,0.97
2018-01-19T03:28:21.816Z,1.33
2018-01-19T03:30:50.928Z,1.10
2018-01-19T03:33:19.246Z,1.17
2018-01-19T03:35:47.598Z,1.10
2018-01-19T03:38:15.920Z,0.90
2018-01-19T03:40:44.248Z,0.60
2018-01-19T03:43:12.590Z,1.23
2018-01-19T03:45:40.986Z,0.80
2018-01-19T03:48:10.056Z,0.80
2018-01-19T03:50:38.404Z,1.00
2018-01-19T03:53:06.746Z,0.80
2018-01-19T03:55:35.849Z,0.83
2018-01-19T03:58:04.929Z,0.90
2018-01-19T04:00:33.419Z,1.00
2018-01-19T04:03:01.759Z,0.90
2018-01-19T04:05:30.099Z,0.80
2018-01-19T04:07:58.413Z,0.97
2018-01-19T04:10:26.755Z,0.70
2018-01-19T04:12:55.082Z,1.00
2018-01-19T04:15:23.433Z,1.03
2018-01-19T04:17:51.737Z,0.73
2018-01-19T04:20:20.078Z,0.90
2018-01-19T04:22:48.386Z,1.00
2018-01-19T04:25:16.743Z,0.80
2018-01-19T04:27:45.070Z,0.80
2018-01-19T04:30:14.054Z,0.73
2018-01-19T04:32:42.368Z,0.70
2018-01-19T04:35:10.696Z,0.70
2018-01-19T04:37:39.018Z,1.03
2018-01-19T04:40:07.361Z,0.60
2018-01-19T04:42:35.719Z,0.90
2018-01-19T04:45:04.040Z,1.10
2018-01-19T04:47:33.134Z,0.80
2018-01-19T04:50:02.245Z,0.80
2018-01-19T04:52:30.601Z,1.10
2018-01-19T04:54:58.938Z,0.90
2018-01-19T04:57:27.293Z,0.90
2018-01-19T04:59:55.639Z,0.73
2018-01-19T05:02:23.979Z,1.00
2018-01-19T05:04:52.284Z,0.77
2018-01-19T05:07:20.619Z,0.70
2018-01-19T05:09:48.938Z,0.67
2018-01-19T05:12:17.321Z,0.80
2018-01-19T05:14:45.678Z,1.00
2018-01-19T05:17:13.994Z,1.00
2018-01-19T05:19:43.080Z,1.93
2018-01-19T05:22:11.419Z,1.10
2018-01-19T05:24:39.733Z,2.00
2018-01-19T05:27:08.072Z,2.80
2018-01-19T05:29:36.385Z,6.03
2018-01-19T05:32:04.765Z,6.00
2018-01-19T05:34:33.075Z,4.13
2018-01-19T05:37:01.423Z,3.03
2018-01-19T05:39:29.737Z,2.40
2018-01-19T05:41:58.840Z,2.07
2018-01-19T05:44:27.173Z,2.10
2018-01-19T05:46:55.502Z,2.37
2018-01-19T05:49:23.819Z,2.03
2018-01-19T05:51:52.168Z,1.50
2018-01-19T05:54:20.540Z,1.07
2018-01-19T05:56:48.895Z,1.90
2018-01-19T05:59:17.980Z,1.30
2018-01-19T06:01:46.331Z,1.10
2018-01-19T06:04:14.658Z,1.80
2018-01-19T06:06:43.750Z,1.57
2018-01-19T06:09:12.837Z,1.53
2018-01-19T06:11:41.188Z,1.60
2018-01-19T06:14:09.496Z,2.80
2018-01-19T06:16:38.593Z,1.67
2018-01-19T06:19:07.684Z,1.53
2018-01-19T06:21:36.017Z,1.30
2018-01-19T06:24:04.344Z,1.23
2018-01-19T06:26:33.473Z,1.40
2018-01-19T06:29:01.792Z,1.40
2018-01-19T06:31:30.133Z,1.07
2018-01-19T06:33:58.453Z,0.90
2018-01-19T06:36:26.791Z,1.10
2018-01-19T06:38:55.122Z,1.10
2018-01-19T06:41:23.456Z,1.33
2018-01-19T06:43:51.761Z,0.90
2018-01-19T06:46:20.099Z,1.80
2018-01-19T06:48:48.425Z,1.40
2018-01-19T06:51:16.768Z,0.97
2018-01-19T06:53:45.083Z,2.00
2018-01-19T06:56:13.425Z,1.13
2018-01-19T06:58:41.740Z,1.43
2018-01-19T07:01:10.080Z,1.70
2018-01-19T07:03:38.399Z,1.30
2018-01-19T07:06:06.736Z,0.90
2018-01-19T07:08:35.071Z,0.90
2018-01-19T07:11:03.403Z,1.10
2018-01-19T07:13:31.706Z,1.10
2018-01-19T07:16:00.060Z,1.20
2018-01-19T07:18:28.386Z,1.13
2018-01-19T07:20:56.734Z,1.30
2018-01-19T07:23:25.042Z,1.10
2018-01-19T07:25:53.387Z,1.23
2018-01-19T07:28:21.689Z,1.33
2018-01-19T07:30:50.024Z,1.77
2018-01-19T07:33:18.373Z,1.23
2018-01-19T07:35:47.452Z,1.10
2018-01-19T07:38:15.800Z,1.50
2018-01-19T07:40:44.115Z,1.10
2018-01-19T07:43:13.203Z,1.33
2018-01-19T07:45:41.545Z,1.60
2018-01-19T07:48:09.892Z,1.20
2018-01-19T07:50:38.272Z,1.40
2018-01-19T07:53:06.883Z,1.00
2018-01-19T07:55:36.051Z,1.10
2018-01-19T07:58:04.415Z,1.30
2018-01-19T08:00:32.763Z,1.10
2018-01-19T08:03:01.932Z,1.00
2018-01-19T08:05:30.347Z,0.93
2018-01-19T08:07:58.709Z,1.27
2018-01-19T08:10:27.047Z,1.00
2018-01-19T08:12:55.417Z,1.33
2018-01-19T08:21:24.361Z,1.30
2018-01-19T08:23:52.699Z,1.20
2018-01-19T08:26:21.012Z,1.57
2018-01-19T08:28:49.353Z,2.20
2018-01-19T08:31:17.667Z,1.40
2018-01-19T08:33:46.773Z,1.30
2018-01-19T08:36:15.084Z,1.60
2018-01-19T08:38:43.427Z,1.50
2018-01-19T08:41:11.780Z,1.37
2018-01-19T08:43:40.068Z,1.50
2018-01-19T08:46:09.162Z,1.33
2018-01-19T08:48:38.262Z,1.27
2018-01-19T08:51:07.376Z,1.20
2018-01-19T08:53:36.440Z,1.30
2018-01-19T08:56:04.786Z,1.40
2018-01-19T08:58:34.120Z,1.33
2018-01-19T09:01:02.457Z,1.57
2018-01-19T09:03:30.770Z,1.50
2018-01-19T09:05:59.115Z,1.53
2018-01-19T09:08:27.410Z,2.07
2018-01-19T09:10:55.795Z,2.70
2018-01-19T09:13:24.109Z,3.70
2018-01-19T09:15:53.205Z,2.80
2018-01-19T09:18:22.293Z,3.10
2018-01-19T09:20:51.381Z,7.00
2018-01-19T09:23:19.716Z,5.60
2018-01-19T09:25:48.038Z,4.77
2018-01-19T09:28:16.388Z,4.20
2018-01-19T09:30:44.704Z,3.27
2018-01-19T09:33:13.043Z,2.70
2018-01-19T09:35:41.349Z,2.20
2018-01-19T09:38:09.704Z,1.93
2018-01-19T09:40:38.033Z,1.73
2018-01-19T09:43:06.334Z,2.07
2018-01-19T09:45:34.661Z,1.50
2018-01-19T09:48:02.982Z,1.90
2018-01-19T09:50:31.345Z,1.47
2018-01-19T09:52:59.713Z,2.40
2018-01-19T09:55:28.073Z,1.17
2018-01-19T09:57:57.183Z,1.20
2018-01-19T10:00:25.521Z,1.90
2018-01-19T10:02:53.837Z,1.60
2018-01-19T10:05:22.171Z,1.80
2018-01-19T10:07:50.510Z,2.10
2018-01-19T10:10:18.833Z,1.80
2018-01-19T10:12:47.190Z,1.30
2018-01-19T10:15:15.511Z,2.40
2018-01-19T10:17:43.845Z,1.40
2018-01-19T10:20:12.175Z,2.00
2018-01-19T10:22:40.538Z,1.10
2018-01-19T10:25:08.881Z,1.37
2018-01-19T10:27:37.231Z,1.73
2018-01-19T10:30:05.541Z,1.37
2018-01-19T10:32:33.864Z,1.30
2018-01-19T10:35:02.173Z,1.40
2018-01-19T10:37:31.301Z,1.20
2018-01-19T10:39:59.603Z,1.60
2018-01-19T10:42:27.918Z,1.40
2018-01-19T10:44:56.245Z,1.50
2018-01-19T10:47:24.557Z,1.87
2018-01-19T10:49:52.898Z,1.27
2018-01-19T10:52:21.974Z,1.67
2018-01-19T10:54:51.068Z,1.20
2018-01-19T10:57:20.944Z,1.50
2018-01-19T10:59:49.287Z,1.30
2018-01-19T11:02:17.600Z,0.90
2018-01-19T11:04:45.908Z,0.97
2018-01-19T11:07:15.000Z,1.10
2018-01-19T11:09:44.107Z,1.30
2018-01-19T11:12:13.204Z,0.90
2018-01-19T11:14:42.290Z,1.00
2018-01-19T11:17:11.369Z,1.30
2018-01-19T11:19:39.712Z,1.37
2018-01-19T11:22:08.045Z,1.20
2018-01-19T11:24:37.116Z,1.47
2018-01-19T11:27:05.453Z,1.30
2018-01-19T11:29:33.768Z,5.50
2018-01-19T11:32:02.111Z,7.93
2018-01-19T11:34:31.367Z,13.40
2018-01-19T11:36:59.704Z,11.47
2018-01-19T11:39:28.024Z,18.03
2018-01-19T11:41:57.125Z,13.53
2018-01-19T11:44:26.204Z,21.17
2018-01-19T11:46:54.558Z,14.13
2018-01-19T11:49:22.862Z,4.70
2018-01-19T11:51:51.166Z,1.47
2018-01-19T11:54:20.267Z,1.13
2018-01-19T11:56:49.338Z,1.10
2018-01-19T11:59:17.672Z,1.10
2018-01-19T12:01:45.989Z,1.40
2018-01-19T12:04:14.341Z,1.30
2018-01-19T12:06:42.647Z,1.03
2018-01-19T12:09:10.982Z,2.00
2018-01-19T12:11:39.291Z,9.30
2018-01-19T12:14:07.631Z,8.17
2018-01-19T12:16:35.964Z,6.67
2018-01-19T12:19:04.267Z,7.23
2018-01-19T12:21:33.366Z,8.93
2018-01-19T12:24:02.471Z,4.80
2018-01-19T12:26:30.846Z,1.77
2018-01-19T12:28:59.899Z,1.03
2018-01-19T12:31:28.236Z,1.07
2018-01-19T12:33:56.559Z,2.07
2018-01-19T12:36:24.905Z,2.13
2018-01-19T12:38:53.217Z,1.10
2018-01-19T12:41:21.545Z,0.73
2018-01-19T12:43:49.852Z,1.27
2018-01-19T12:46:18.176Z,1.50
2018-01-19T12:48:47.262Z,1.43
2018-01-19T12:51:15.580Z,1.37
2018-01-19T12:53:43.907Z,2.00
2018-01-19T12:56:12.211Z,0.90
2018-01-19T12:58:41.309Z,1.00
2018-01-19T13:01:10.376Z,1.00
2018-01-19T13:03:38.695Z,1.03
2018-01-19T13:06:07.002Z,1.37
2018-01-19T13:08:35.328Z,1.20
2018-01-19T13:11:04.405Z,1.10
2018-01-19T13:13:32.714Z,0.90
2018-01-19T13:16:01.817Z,1.43
2018-01-19T13:18:31.068Z,1.10
2018-01-19T13:20:59.391Z,1.30
2018-01-19T13:23:28.481Z,0.87
2018-01-19T13:25:57.573Z,1.33
2018-01-19T13:28:26.638Z,1.00
2018-01-19T13:30:54.975Z,2.80
2018-01-19T13:33:23.287Z,2.07
2018-01-19T13:35:51.609Z,1.40
2018-01-19T13:38:20.681Z,1.20
2018-01-19T13:40:49.021Z,1.13
2018-01-19T13:43:17.321Z,2.37
2018-01-19T13:45:45.663Z,4.67
2018-01-19T13:48:13.968Z,3.60
2018-01-19T13:50:42.275Z,9.90
2018-01-19T13:53:10.601Z,8.30
2018-01-19T13:55:38.922Z,3.10
2018-01-19T13:58:07.231Z,3.60
2018-01-19T14:00:36.298Z,1.50
2018-01-19T14:03:04.625Z,2.10
2018-01-19T14:05:32.911Z,1.83
2018-01-19T14:08:01.997Z,3.00
2018-01-19T14:10:30.308Z,1.27
2018-01-19T14:12:58.635Z,1.10
2018-01-19T14:15:27.716Z,1.33
2018-01-19T14:17:56.027Z,1.10
2018-01-19T14:20:24.331Z,0.70
2018-01-19T14:22:52.628Z,1.33
2018-01-19T14:25:20.938Z,1.07
2018-01-19T14:27:50.004Z,0.80
2018-01-19T14:30:18.310Z,0.80
2018-01-19T14:32:47.372Z,0.80
2018-01-19T14:35:15.696Z,1.00
2018-01-19T14:37:47.416Z,0.90
2018-01-19T14:40:15.728Z,0.90
2018-01-19T14:42:44.790Z,0.90
2018-01-19T14:45:13.108Z,0.90
2018-01-19T14:47:42.207Z,1.67
2018-01-19T14:50:10.529Z,1.40
2018-01-19T14:52:38.817Z,2.90
2018-01-19T14:55:07.156Z,3.70
2018-01-19T14:57:35.462Z,10.27
2018-01-19T15:00:03.784Z,7.20
2018-01-19T15:02:32.871Z,6.93
2018-01-19T15:05:01.936Z,2.77
2018-01-19T15:07:30.253Z,6.47
2018-01-19T15:09:59.323Z,8.30
2018-01-19T15:12:27.652Z,4.80
2018-01-19T15:14:55.959Z,2.30
2018-01-19T15:17:24.266Z,1.63
2018-01-19T15:19:52.573Z,1.83
2018-01-19T15:22:20.883Z,1.73
2018-01-19T15:24:49.171Z,1.40
2018-01-19T15:27:17.503Z,1.57
2018-01-19T15:29:46.564Z,1.27
2018-01-19T15:32:14.900Z,1.50
2018-01-19T15:34:43.214Z,1.47
2018-01-19T15:37:11.518Z,1.97
2018-01-19T15:39:39.841Z,1.67
2018-01-19T15:42:08.142Z,1.50
2018-01-19T15:44:37.241Z,2.40
2018-01-19T15:47:05.544Z,2.10
2018-01-19T15:49:33.860Z,1.40
2018-01-19T15:52:12.371Z,2.00
2018-01-19T15:54:40.690Z,2.13
2018-01-19T15:57:08.979Z,2.60
2018-01-19T15:59:37.345Z,2.23
2018-01-19T16:02:05.643Z,1.57
2018-01-19T16:04:33.974Z,1.40
2018-01-19T16:07:02.258Z,1.00
2018-01-19T16:09:30.584Z,1.27
2018-01-19T16:11:58.875Z,1.20
2018-01-19T16:14:27.981Z,1.30
2018-01-19T16:16:57.045Z,1.33
2018-01-19T16:19:25.356Z,1.97
2018-01-19T16:21:54.449Z,1.67
2018-01-19T16:24:24.439Z,1.90
2018-01-19T16:26:52.777Z,2.10
2018-01-19T16:29:21.077Z,2.27
2018-01-19T16:31:49.390Z,8.23
2018-01-19T16:34:17.692Z,2.57
2018-01-19T16:36:46.060Z,2.17
2018-01-19T16:39:15.111Z,1.40
2018-01-19T16:41:43.452Z,1.80
2018-01-19T16:44:11.763Z,2.40
2018-01-19T16:46:40.111Z,1.50
2018-01-19T16:49:08.408Z,1.80
2018-01-19T16:51:36.736Z,3.00
2018-01-19T16:54:05.061Z,3.33
2018-01-19T16:56:33.355Z,2.33
2018-01-19T16:59:01.682Z,3.23
2018-01-19T17:01:30.742Z,3.00
2018-01-19T17:03:59.090Z,3.10
2018-01-19T17:06:27.400Z,9.00
2018-01-19T17:08:55.727Z,7.00
2018-01-19T17:11:24.038Z,6.23
2018-01-19T17:13:52.375Z,9.00
2018-01-19T17:16:21.451Z,8.53
2018-01-19T17:18:49.791Z,5.03
2018-01-19T17:21:18.103Z,8.47
2018-01-19T17:23:47.229Z,4.87
2018-01-19T17:26:15.543Z,11.83
2018-01-19T17:28:43.891Z,9.37
2018-01-19T17:31:12.208Z,6.77
2018-01-19T17:33:40.519Z,6.53
2018-01-19T17:36:08.845Z,7.93
2018-01-19T17:38:40.452Z,6.57
2018-01-19T17:41:08.788Z,6.87
2018-01-19T17:43:37.089Z,5.83
2018-01-19T17:46:05.449Z,9.27
2018-01-19T17:48:33.748Z,5.60
2018-01-19T17:51:02.082Z,3.67
2018-01-19T17:53:30.405Z,4.67
2018-01-19T17:55:58.737Z,4.37
2018-01-19T17:58:27.043Z,5.40
2018-01-19T18:00:55.376Z,3.90
2018-01-19T18:03:24.447Z,3.77
2018-01-19T18:05:52.775Z,4.37
2018-01-19T18:08:21.079Z,4.43
2018-01-19T18:10:49.445Z,3.87
2018-01-19T18:13:17.749Z,6.83
2018-01-19T18:15:46.061Z,4.23
2018-01-19T18:18:15.157Z,5.13
2018-01-19T18:20:44.241Z,4.13
2018-01-19T18:23:14.483Z,2.90
2018-01-19T18:25:43.556Z,2.80
2018-01-19T18:28:11.891Z,2.30
2018-01-19T18:30:40.199Z,2.53
2018-01-19T18:33:08.522Z,5.60
2018-01-19T18:35:36.848Z,4.60
2018-01-19T18:38:05.173Z,3.70
2018-01-19T18:40:33.490Z,10.30
2018-01-19T18:43:01.855Z,3.20
2018-01-19T18:45:30.173Z,2.47
2018-01-19T18:47:58.552Z,3.10
2018-01-19T18:50:26.901Z,2.50
2018-01-19T18:52:56.000Z,3.00
2018-01-19T18:55:24.312Z,3.20
2018-01-19T18:57:52.648Z,3.23
2018-01-19T19:00:20.952Z,2.77
2018-01-19T19:02:49.257Z,3.73
2018-01-19T19:05:17.585Z,4.10
2018-01-19T19:07:46.867Z,4.60
2018-01-19T19:10:18.545Z,4.80
2018-01-19T19:12:46.866Z,7.13
2018-01-19T19:15:15.236Z,3.90
2018-01-19T19:17:43.535Z,4.17
2018-01-19T19:20:12.634Z,6.30
2018-01-19T19:22:41.766Z,5.80
2018-01-19T19:25:10.135Z,5.30
2018-01-19T19:27:38.440Z,6.83
2018-01-19T19:30:06.811Z,7.40
2018-01-19T19:32:35.179Z,7.20
2018-01-19T19:35:03.556Z,6.93
2018-01-19T19:37:31.916Z,7.77
2018-01-19T19:40:01.017Z,6.47
2018-01-19T19:42:29.331Z,6.23
2018-01-19T19:44:57.670Z,6.23
2018-01-19T19:47:26.756Z,5.30
2018-01-19T19:49:55.827Z,5.73
2018-01-19T19:52:24.198Z,5.60
2018-01-19T19:54:52.496Z,5.73
2018-01-19T19:57:33.921Z,4.67
2018-01-19T20:00:02.296Z,7.07
2018-01-19T20:02:30.630Z,8.33
2018-01-19T20:04:58.938Z,8.50
2018-01-19T20:07:28.086Z,8.80
2018-01-19T20:09:56.459Z,10.03
2018-01-19T20:12:24.800Z,8.73
2018-01-19T20:14:53.102Z,8.10
2018-01-19T20:17:21.485Z,12.40
2018-01-19T20:19:49.842Z,15.63
2018-01-19T20:22:18.229Z,14.50
2018-01-19T20:24:46.555Z,7.83
2018-01-19T20:27:14.963Z,10.37
2018-01-19T20:29:44.094Z,7.67
2018-01-19T20:32:12.463Z,6.10
2018-01-19T20:34:40.852Z,4.80
2018-01-19T20:37:09.178Z,6.03
2018-01-19T20:39:37.567Z,5.30
2018-01-19T20:42:05.941Z,6.00
2018-01-19T20:44:34.310Z,5.50
2018-01-19T20:47:02.676Z,8.43
2018-01-19T20:49:31.076Z,7.50
2018-01-19T20:51:59.427Z,8.10
2018-01-19T20:54:27.794Z,7.10
2018-01-19T20:56:56.141Z,10.03
2018-01-19T20:59:24.531Z,11.07
2018-01-19T21:01:52.847Z,12.57
2018-01-19T21:04:21.225Z,12.70
2018-01-19T21:06:49.596Z,11.30
2018-01-19T21:09:17.899Z,10.47
2018-01-19T21:11:46.289Z,12.90
2018-01-19T21:14:14.652Z,10.80
2018-01-19T21:16:42.997Z,10.27
2018-01-19T21:19:11.373Z,14.50
2018-01-19T21:21:39.749Z,12.97
2018-01-19T21:24:08.070Z,15.60
2018-01-19T21:26:36.413Z,19.73
2018-01-19T21:29:04.732Z,20.83
2018-01-19T21:31:33.122Z,17.80
2018-01-19T21:34:01.470Z,18.17
2018-01-19T21:36:29.872Z,21.30
2018-01-19T21:38:58.221Z,21.13
2018-01-19T21:41:26.551Z,22.63
2018-01-19T21:43:55.640Z,20.10
2018-01-19T21:46:24.811Z,19.00
2018-01-19T21:48:53.182Z,19.20
2018-01-19T21:51:21.499Z,15.47
2018-01-19T21:53:50.685Z,18.10
2018-01-19T21:56:19.007Z,15.17
2018-01-19T21:58:47.352Z,14.00
2018-01-19T22:01:16.500Z,13.37
2018-01-19T22:03:44.870Z,10.73
2018-01-19T22:06:13.252Z,13.00
2018-01-19T22:08:41.593Z,12.70
2018-01-19T22:11:10.701Z,11.83
2018-01-19T22:13:39.816Z,12.37
2018-01-19T22:16:08.187Z,10.10
2018-01-19T22:18:36.531Z,14.60
2018-01-19T22:21:04.909Z,11.50
2018-01-19T22:23:33.276Z,13.07
2018-01-19T22:26:01.592Z,14.53
2018-01-19T22:28:30.682Z,16.33
2018-01-19T22:31:03.167Z,19.37
2018-01-19T22:33:32.297Z,17.93
2018-01-19T22:36:01.599Z,14.70
2018-01-19T22:38:29.983Z,15.37
2018-01-19T22:40:58.349Z,17.47
2018-01-19T22:43:26.744Z,17.80
2018-01-19T22:45:55.051Z,17.30
2018-01-19T22:48:24.226Z,16.27
2018-01-19T22:50:52.607Z,15.30
2018-01-19T22:53:20.998Z,15.30
2018-01-19T22:55:49.361Z,12.07
2018-01-19T22:58:17.817Z,10.30
2018-01-19T23:00:46.955Z,9.50
2018-01-19T23:03:15.351Z,8.77
2018-01-19T23:05:43.702Z,9.27
2018-01-19T23:08:12.053Z,7.70
2018-01-19T23:10:40.406Z,7.40
2018-01-19T23:13:09.516Z,7.50
2018-01-19T23:15:37.901Z,9.10
2018-01-19T23:18:06.244Z,7.80
2018-01-19T23:20:34.573Z,7.13
2018-01-19T23:23:02.918Z,8.30
2018-01-19T23:25:32.037Z,7.13
2018-01-19T23:28:00.412Z,7.00
2018-01-19T23:30:28.777Z,6.10
2018-01-19T23:32:57.917Z,6.37
2018-01-19T23:35:26.270Z,6.80
2018-01-19T23:37:54.658Z,7.60
2018-01-19T23:40:22.966Z,5.40
2018-01-19T23:42:51.344Z,5.63
2018-01-19T23:45:19.688Z,5.37
2018-01-19T23:47:48.052Z,5.93
2018-01-19T23:50:16.523Z,6.17
2018-01-19T23:52:44.888Z,5.50
2018-01-19T23:55:13.268Z,5.57
2018-01-19T23:57:41.578Z,6.00
